Friday, October 24, 2014
08:36 UTC
  |  Log In   |  Register Free
Airport Search:

New Richmond Regional Airport
(KRNH)

New Richmond Regional Airport Diagram
No Airport Diagram Available

FAA data valid effective September 18, 2014 - November 13, 2014 (unless otherwise noted).

 
 
 
 
 
 
 
 
 
 
 
 
 
 

Current Aviation Weather for New Richmond Regional Airport (KRNH)

The most recent METAR observation for KRNH was updated at: 0814
METAR Summary (Translated METAR)
KRNH
240755Z AUTO 15006KT 1SM BR OVC002 09/09 A2997 RMK AO2 T00900090
KOEO
240755Z AUTO 13004KT 3SM BR OVC003 10/10 A2999 RMK AO2 T00950095
(11.6 nm NW from KRNH)
K21D
240751Z AUTO 17004KT 1 1/2SM BR OVC002 08/08 A2997 RMK AO2
(16.2 nm SW from KRNH)
TAF Summary (Translated TAF)
KRNH
240525Z 2406/2506 16006KT 3/4SM BR OVC002 FM241400 17005KT 4SM BR BKN008 FM241700 20009KT P6SM BKN030 FM242100 20006KT P6SM SCT035
  Airport Weather Conditions for KRNH

 Current Weather at RNH
48° F
Fog/Mist
Southeast winds at 6.9 mph
RNH NOAA Radar

Pressure: 29.97 in
Humidity: 100%
Wind: Southeast at 6.9 MPH (6 KT)
Dew Point: 48.2°F
Visibility: 1.00 mi


Airport Weather Forecast for KRNH

Translated METAR and TAF for KRNH
Translated METAR for KRNH (0831 UTC 24 October 2014)
found at http://aviationweather.gov/adds/metars/
 
METAR text: KRNH 240815Z AUTO 15004KT 1 3/4SM BR OVC002 09/09 A2997 RMK AO2 T00900090
Conditions at: KRNH (NEW RICHMOND MUN, WI, US) observed 0815 UTC 24 October 2014
Temperature: 9.0°C (48°F)
Dewpoint: 9.0°C (48°F) [RH = 100%]
Pressure (altimeter): 29.97 inches Hg (1015.0 mb)
Winds: from the SSE (150 degrees) at 5 MPH (4 knots; 2.1 m/s)
Visibility: 1.75 miles (2.82 km)
Ceiling: 200 feet AGL
Clouds: overcast cloud deck at 200 feet AGL
Weather: BR  (mist)
Translated TAF for KRNH
Forecast for: KRNH (NEW RICHMOND MUN, WI, US)
TAF Text: KRNH 240525Z 2406/2506 16006KT 3/4SM BR OVC002
Forecast period: 0600 to 1400 UTC 24 October 2014
Forecast type: FROM: standard forecast or significant change
Winds: from the SSE (160 degrees) at 7 MPH (6 knots; 3.1 m/s)
Visibility: 0.75 miles (1.21 km)
Ceiling: 200 feet AGL
Clouds: overcast cloud deck at 200 feet AGL
Weather: BR  (mist)
TAF Text: FM241400 17005KT 4SM BR BKN008
Forecast period: 1400 to 1700 UTC 24 October 2014
Forecast type: FROM: standard forecast or significant change
Winds: from the S (170 degrees) at 6 MPH (5 knots; 2.6 m/s)
Visibility: 4 miles (6 km)
Ceiling: 800 feet AGL
Clouds: broken clouds at 800 feet AGL
Weather: BR  (mist)
TAF Text: FM241700 20009KT P6SM BKN030
Forecast period: 1700 to 2100 UTC 24 October 2014
Forecast type: FROM: standard forecast or significant change
Winds: from the SSW (200 degrees) at 10 MPH (9 knots; 4.7 m/s)
Visibility: 6 or more miles (10+ km)
Ceiling: 3000 feet AGL
Clouds: broken clouds at 3000 feet AGL
Weather: no significant weather forecast for this period
TAF Text: FM242100 20006KT P6SM SCT035
Forecast period: 2100 UTC 24 October 2014 to 0600 UTC 25 October 2014
Forecast type: FROM: standard forecast or significant change
Winds: from the SSW (200 degrees) at 7 MPH (6 knots; 3.1 m/s)
Visibility: 6 or more miles (10+ km)
Clouds: scattered clouds at 3500 feet AGL
Weather: no significant weather forecast for this period

Find All Airport Services Find A Hotel Find A Rental Car Find A Golf Course Find A Restaurant $100 Hamburger



FBO's on the Field
FBO Company Facility Photos Services Transportation Aviation Fuel Prices: Prices include tax
Catering Weather Repair Courtesy Rental Type 100LL JetA JetA+ MOGAS 8087
 
Griggs Aviation

This FBO has not yet been rated
FS:Independent
Last Updated: Oct-21
Login to update fuel prices
SS:
Contact Griggs AviationMore FBO Information
 
Add another FBO Facility Photos Catering Weather Repair Courtesy Rental Type 100LL JetA JetA+ MOGAS 8087
Services Transportation Aviation Fuel Prices: Prices include tax


model-print
model-print
model-print
model-print